createdAt,value
2022-11-16T00:01:27.167Z,8.50
2022-11-16T00:04:31.837Z,8.40
2022-11-16T00:07:36.442Z,8.50
2022-11-16T00:10:40.897Z,8.50
2022-11-16T00:13:45.421Z,8.50
2022-11-16T00:16:50.708Z,8.50
2022-11-16T00:19:55.123Z,8.50
2022-11-16T00:22:59.483Z,8.50
2022-11-16T00:26:08.163Z,8.50
2022-11-16T00:29:18.348Z,8.50
2022-11-16T00:32:23.554Z,8.50
2022-11-16T00:35:27.864Z,8.40
2022-11-16T00:38:32.267Z,8.40
2022-11-16T00:41:36.797Z,8.40
2022-11-16T00:44:41.417Z,8.40
2022-11-16T00:47:45.961Z,8.40
2022-11-16T00:50:50.708Z,8.30
2022-11-16T00:53:55.788Z,8.30
2022-11-16T00:57:00.553Z,8.30
2022-11-16T01:00:05.581Z,8.30
2022-11-16T01:03:12.109Z,8.30
2022-11-16T01:06:17.109Z,8.30
2022-11-16T01:09:21.381Z,8.30
2022-11-16T01:12:25.764Z,8.40
2022-11-16T01:15:30.244Z,8.30
2022-11-16T01:18:34.887Z,8.30
2022-11-16T01:21:39.485Z,8.30
2022-11-16T01:24:46.536Z,8.40
2022-11-16T01:27:51.341Z,8.40
2022-11-16T01:31:02.960Z,8.40
2022-11-16T01:34:10.071Z,8.40
2022-11-16T01:37:14.465Z,8.40
2022-11-16T01:40:19.928Z,8.40
2022-11-16T01:43:25.817Z,8.40
2022-11-16T01:46:35.305Z,8.40
2022-11-16T01:49:46.801Z,8.40
2022-11-16T01:52:57.405Z,8.40
2022-11-16T01:56:04.503Z,8.40
2022-11-16T01:59:21.581Z,8.40
2022-11-16T02:02:27.002Z,8.50
2022-11-16T02:05:45.478Z,8.50
2022-11-16T02:09:28.352Z,8.40
2022-11-16T02:12:58.296Z,8.50
2022-11-16T02:16:30.107Z,8.60
2022-11-16T02:19:48.368Z,8.60
2022-11-16T02:23:15.821Z,8.70
2022-11-16T02:26:47.458Z,8.60
2022-11-16T02:29:56.210Z,8.60
2022-11-16T02:33:13.390Z,8.60
2022-11-16T02:36:22.208Z,8.50
2022-11-16T02:39:29.574Z,8.60
2022-11-16T02:42:41.097Z,8.50
2022-11-16T02:45:49.568Z,8.50
2022-11-16T02:48:58.936Z,8.50
2022-11-16T02:52:04.863Z,8.50
2022-11-16T02:55:09.906Z,8.50
2022-11-16T02:58:20.091Z,8.40
2022-11-16T03:01:48.526Z,8.40
2022-11-16T03:05:01.658Z,8.40
2022-11-16T03:08:32.884Z,8.40
2022-11-16T03:12:00.739Z,8.40
2022-11-16T03:15:11.668Z,8.50
2022-11-16T03:18:18.684Z,8.50
2022-11-16T03:21:38.824Z,8.50
2022-11-16T03:24:43.708Z,8.40
2022-11-16T03:28:07.933Z,8.50
2022-11-16T03:31:29.521Z,8.40
2022-11-16T03:34:37.565Z,8.40
2022-11-16T03:37:44.468Z,8.40
2022-11-16T03:40:51.569Z,8.30
2022-11-16T03:43:57.845Z,8.30
2022-11-16T03:47:02.278Z,8.30
2022-11-16T03:50:07.534Z,8.30
2022-11-16T03:53:12.113Z,8.30
2022-11-16T03:56:16.919Z,8.30
2022-11-16T03:59:24.009Z,8.30
2022-11-16T04:02:28.270Z,8.30
2022-11-16T04:05:54.182Z,8.20
2022-11-16T04:09:16.971Z,8.20
2022-11-16T04:12:39.964Z,8.20
2022-11-16T04:16:03.004Z,8.10
2022-11-16T04:19:27.634Z,8.10
2022-11-16T04:22:56.454Z,8.10
2022-11-16T04:26:00.738Z,8.00
2022-11-16T04:29:05.148Z,8.00
2022-11-16T04:32:29.173Z,8.00
2022-11-16T04:35:52.989Z,8.00
2022-11-16T04:38:57.313Z,8.10
2022-11-16T04:42:17.203Z,8.20
2022-11-16T04:45:43.997Z,8.30
2022-11-16T04:48:48.418Z,8.30
2022-11-16T04:51:53.753Z,8.20
2022-11-16T04:54:58.055Z,8.20
2022-11-16T04:58:03.053Z,8.20
2022-11-16T05:01:07.531Z,8.30
2022-11-16T05:04:12.450Z,8.30
2022-11-16T05:07:17.055Z,8.30
2022-11-16T05:10:23.294Z,8.30
2022-11-16T05:13:29.846Z,8.20
2022-11-16T05:16:34.663Z,8.30
2022-11-16T05:19:57.608Z,8.30
2022-11-16T05:23:04.046Z,8.30
2022-11-16T05:26:11.748Z,8.30
2022-11-16T05:29:16.737Z,8.30
2022-11-16T05:32:22.199Z,8.30
2022-11-16T05:35:27.660Z,8.30
2022-11-16T05:38:32.479Z,8.20
2022-11-16T05:41:38.442Z,8.20
2022-11-16T05:44:42.741Z,8.20
2022-11-16T05:47:47.500Z,8.20
2022-11-16T05:50:57.371Z,8.20
2022-11-16T05:54:03.644Z,8.30
2022-11-16T05:57:08.445Z,8.30
2022-11-16T06:00:13.530Z,8.30
2022-11-16T06:03:25.038Z,8.30
2022-11-16T06:06:29.311Z,8.30
2022-11-16T06:09:34.886Z,8.20
2022-11-16T06:12:48.514Z,8.20
2022-11-16T06:15:53.439Z,8.30
2022-11-16T06:19:00.001Z,8.30
2022-11-16T06:22:04.600Z,8.20
2022-11-16T06:25:10.930Z,8.20
2022-11-16T06:28:19.873Z,8.20
2022-11-16T06:31:25.360Z,8.20
2022-11-16T06:34:31.188Z,8.30
2022-11-16T06:37:36.231Z,8.30
2022-11-16T06:40:40.684Z,8.30
2022-11-16T06:43:45.342Z,8.20
2022-11-16T06:46:51.687Z,8.20
2022-11-16T06:49:56.066Z,8.20
2022-11-16T06:53:01.289Z,8.20
2022-11-16T06:56:07.358Z,8.20
2022-11-16T06:59:19.646Z,8.20
2022-11-16T07:02:24.193Z,8.30
2022-11-16T07:05:28.568Z,8.20
2022-11-16T07:08:33.724Z,8.30
2022-11-16T07:11:38.299Z,8.30
2022-11-16T07:14:43.187Z,8.30
2022-11-16T07:17:48.652Z,8.30
2022-11-16T07:20:52.958Z,8.30
2022-11-16T07:23:57.869Z,8.30
2022-11-16T07:27:02.431Z,8.30
2022-11-16T07:30:12.501Z,8.30
2022-11-16T07:33:30.132Z,8.30
2022-11-16T07:37:03.555Z,8.30
2022-11-16T07:40:08.705Z,8.30
2022-11-16T07:43:14.578Z,8.30
2022-11-16T07:46:48.787Z,8.30
2022-11-16T07:49:54.385Z,8.30
2022-11-16T07:53:02.633Z,8.30
2022-11-16T07:56:08.091Z,8.30
2022-11-16T07:59:12.517Z,8.30
2022-11-16T08:02:20.634Z,8.30
2022-11-16T08:05:27.009Z,8.30
2022-11-16T08:08:32.417Z,8.30
2022-11-16T08:11:36.924Z,8.40
2022-11-16T08:14:41.909Z,8.40
2022-11-16T08:17:46.309Z,8.50
2022-11-16T08:20:51.441Z,8.50
2022-11-16T08:23:58.643Z,8.40
2022-11-16T08:27:04.217Z,8.40
2022-11-16T08:30:09.983Z,8.50
2022-11-16T08:33:16.120Z,8.50
2022-11-16T08:36:21.577Z,8.40
2022-11-16T08:39:27.017Z,8.50
2022-11-16T08:42:31.270Z,8.50
2022-11-16T08:45:38.334Z,8.60
2022-11-16T08:48:43.011Z,8.60
2022-11-16T08:51:48.265Z,8.60
2022-11-16T08:54:52.796Z,8.70
2022-11-16T08:57:57.051Z,8.80
2022-11-16T09:01:11.339Z,8.90
2022-11-16T09:04:16.780Z,8.80
2022-11-16T09:07:21.709Z,8.90
2022-11-16T09:10:26.180Z,8.90
2022-11-16T09:13:30.520Z,8.80
2022-11-16T09:16:35.216Z,8.90
2022-11-16T09:19:39.739Z,9.00
2022-11-16T09:22:44.056Z,8.90
2022-11-16T09:25:49.090Z,8.90
2022-11-16T09:28:55.910Z,8.90
2022-11-16T09:32:02.390Z,8.90
2022-11-16T09:35:07.383Z,8.90
2022-11-16T09:38:17.652Z,8.80
2022-11-16T09:41:51.131Z,8.80
2022-11-16T09:45:00.194Z,8.80
2022-11-16T09:48:09.137Z,8.80
2022-11-16T09:51:17.456Z,8.80
2022-11-16T09:54:25.933Z,8.80
2022-11-16T09:57:37.147Z,8.80
2022-11-16T10:00:50.132Z,8.90
2022-11-16T10:04:02.739Z,9.00
2022-11-16T10:07:20.508Z,9.10
2022-11-16T10:10:45.939Z,9.00
2022-11-16T10:14:21.500Z,9.10
2022-11-16T10:17:26.036Z,9.10
2022-11-16T10:20:48.240Z,9.00
2022-11-16T10:24:03.442Z,9.00
2022-11-16T10:27:28.745Z,9.00
2022-11-16T10:30:40.244Z,9.00
2022-11-16T10:33:46.648Z,9.00
2022-11-16T10:36:54.423Z,9.00
2022-11-16T10:39:58.974Z,9.00
2022-11-16T10:43:06.413Z,9.00
2022-11-16T10:46:24.311Z,9.00
2022-11-16T10:49:40.317Z,9.00
2022-11-16T10:52:44.941Z,9.10
2022-11-16T10:56:15.475Z,9.10
2022-11-16T10:59:20.353Z,9.00
2022-11-16T11:02:29.218Z,9.00
2022-11-16T11:05:35.570Z,9.00
2022-11-16T11:08:39.736Z,9.00
2022-11-16T11:12:27.982Z,9.10
2022-11-16T11:15:32.823Z,9.00
2022-11-16T11:18:37.594Z,9.10
2022-11-16T11:21:41.888Z,9.00
2022-11-16T11:24:50.163Z,9.00
2022-11-16T11:28:19.784Z,8.90
2022-11-16T11:31:38.788Z,8.90
2022-11-16T11:34:48.395Z,8.90
2022-11-16T11:37:55.144Z,9.00
2022-11-16T11:41:01.680Z,9.10
2022-11-16T11:44:12.657Z,9.40
2022-11-16T11:47:56.085Z,10.00
2022-11-16T11:50:57.747Z,10.40
2022-11-16T11:54:04.912Z,9.90
2022-11-16T11:57:20.458Z,9.70
2022-11-16T12:00:26.088Z,9.50
2022-11-16T12:03:54.622Z,9.50
2022-11-16T12:07:12.007Z,9.40
2022-11-16T12:10:25.530Z,9.30
2022-11-16T12:13:49.059Z,9.20
2022-11-16T12:17:05.422Z,9.30
2022-11-16T12:20:28.160Z,11.20
2022-11-16T12:24:14.441Z,9.60
2022-11-16T12:27:36.355Z,9.10
2022-11-16T12:30:48.014Z,9.00
2022-11-16T12:34:11.287Z,9.00
2022-11-16T12:37:25.266Z,8.90
2022-11-16T12:40:55.868Z,8.80
2022-11-16T12:44:12.531Z,8.80
2022-11-16T12:47:26.018Z,8.70
2022-11-16T12:50:56.727Z,8.60
2022-11-16T12:54:25.736Z,8.70
2022-11-16T12:58:08.602Z,8.70
2022-11-16T13:01:35.601Z,8.70
2022-11-16T13:04:51.870Z,8.70
2022-11-16T13:08:37.369Z,8.60
2022-11-16T13:11:51.920Z,8.50
2022-11-16T13:14:59.349Z,8.50
2022-11-16T13:18:07.360Z,8.50
2022-11-16T13:21:18.341Z,8.50
2022-11-16T13:24:44.381Z,8.50
2022-11-16T13:28:03.997Z,8.50
2022-11-16T13:31:18.573Z,8.50
2022-11-16T13:34:27.060Z,8.40
2022-11-16T13:37:34.425Z,8.40
2022-11-16T13:40:40.018Z,8.40
2022-11-16T13:43:50.932Z,8.40
2022-11-16T13:47:04.256Z,8.30
2022-11-16T13:50:18.954Z,8.30
2022-11-16T13:54:25.050Z,8.30
2022-11-16T13:56:50.591Z,8.20
2022-11-16T14:00:28.807Z,8.10
2022-11-16T14:03:46.500Z,8.00
2022-11-16T14:06:50.715Z,8.00
2022-11-16T14:09:54.863Z,8.00
2022-11-16T14:13:26.091Z,8.00
2022-11-16T14:16:32.160Z,7.90
2022-11-16T14:19:49.137Z,7.90
2022-11-16T14:23:06.471Z,7.90
2022-11-16T14:26:23.475Z,7.80
2022-11-16T14:29:53.528Z,7.80
2022-11-16T14:32:58.474Z,7.70
2022-11-16T14:36:04.162Z,7.70
2022-11-16T14:39:24.481Z,7.60
2022-11-16T14:42:48.066Z,7.60
2022-11-16T14:46:07.036Z,7.60
2022-11-16T14:49:15.984Z,7.50
2022-11-16T14:52:36.464Z,7.60
2022-11-16T14:55:47.535Z,7.50
2022-11-16T14:58:56.474Z,7.50
2022-11-16T15:02:18.999Z,7.50
2022-11-16T15:05:28.450Z,7.50
2022-11-16T15:08:50.261Z,7.50
2022-11-16T15:12:13.143Z,7.50
2022-11-16T15:15:37.820Z,7.40
2022-11-16T15:18:55.080Z,7.30
2022-11-16T15:22:01.349Z,7.30
2022-11-16T15:25:06.090Z,7.30
2022-11-16T15:28:21.051Z,7.30
2022-11-16T15:31:25.494Z,7.30
2022-11-16T15:34:31.488Z,7.40
2022-11-16T15:37:35.906Z,7.40
2022-11-16T15:40:48.551Z,7.40
2022-11-16T15:44:13.472Z,7.30
2022-11-16T15:47:20.097Z,7.20
2022-11-16T15:50:24.735Z,7.10
2022-11-16T15:53:46.441Z,7.10
2022-11-16T15:56:52.545Z,7.00
2022-11-16T15:59:57.918Z,7.00
2022-11-16T16:03:16.239Z,7.00
2022-11-16T16:06:48.514Z,7.00
2022-11-16T16:10:12.920Z,7.00
2022-11-16T16:13:27.787Z,7.00
2022-11-16T16:16:37.250Z,7.00
2022-11-16T16:19:44.668Z,7.00
2022-11-16T16:22:49.466Z,7.00
2022-11-16T16:25:53.597Z,6.90
2022-11-16T16:28:57.909Z,6.90
2022-11-16T16:32:02.439Z,6.80
2022-11-16T16:35:14.982Z,6.80
2022-11-16T16:38:19.282Z,6.90
2022-11-16T16:41:24.686Z,6.90
2022-11-16T16:44:29.189Z,6.80
2022-11-16T16:47:33.617Z,6.80
2022-11-16T16:50:38.468Z,6.80
2022-11-16T16:53:42.728Z,6.70
2022-11-16T16:56:47.040Z,6.70
2022-11-16T16:59:51.561Z,6.80
2022-11-16T17:02:56.149Z,6.80
2022-11-16T17:06:02.012Z,6.80
2022-11-16T17:09:06.409Z,7.00
2022-11-16T17:12:11.381Z,6.90
2022-11-16T17:15:19.323Z,6.90
2022-11-16T17:18:23.925Z,7.00
2022-11-16T17:21:28.121Z,6.90
2022-11-16T17:24:34.749Z,6.80
2022-11-16T17:27:39.312Z,6.80
2022-11-16T17:30:43.449Z,6.80
2022-11-16T17:33:47.700Z,6.80
2022-11-16T17:36:52.030Z,6.70
2022-11-16T17:39:56.943Z,6.70
2022-11-16T17:43:01.635Z,6.60
2022-11-16T17:46:08.429Z,6.60
2022-11-16T17:49:12.845Z,6.60
2022-11-16T17:52:17.115Z,6.60
2022-11-16T17:55:21.604Z,6.60
2022-11-16T17:58:27.551Z,6.60
2022-11-16T18:01:32.351Z,6.60
2022-11-16T18:04:36.673Z,6.60
2022-11-16T18:07:41.202Z,6.60
2022-11-16T18:10:45.339Z,6.50
2022-11-16T18:13:54.770Z,6.50
2022-11-16T18:16:59.497Z,6.50
2022-11-16T18:20:04.779Z,6.50
2022-11-16T18:23:09.049Z,6.50
2022-11-16T18:26:18.696Z,6.50
2022-11-16T18:29:22.973Z,6.50
2022-11-16T18:32:27.276Z,6.40
2022-11-16T18:35:31.515Z,6.30
2022-11-16T18:38:39.203Z,6.30
2022-11-16T18:41:48.778Z,6.20
2022-11-16T18:44:57.695Z,6.20
2022-11-16T18:48:01.915Z,6.10
2022-11-16T18:51:06.287Z,6.10
2022-11-16T18:54:11.170Z,6.20
2022-11-16T18:57:15.598Z,6.10
2022-11-16T19:00:20.252Z,6.20
2022-11-16T19:03:24.808Z,6.20
2022-11-16T19:06:32.035Z,6.10
2022-11-16T19:09:36.234Z,6.20
2022-11-16T19:12:40.657Z,6.10
2022-11-16T19:15:45.427Z,6.30
2022-11-16T19:18:50.304Z,6.20
2022-11-16T19:21:56.873Z,6.30
2022-11-16T19:25:06.072Z,6.20
2022-11-16T19:28:10.815Z,6.10
2022-11-16T19:31:24.145Z,6.20
2022-11-16T19:34:33.144Z,6.10
2022-11-16T19:37:41.422Z,6.10
2022-11-16T19:40:45.746Z,6.10
2022-11-16T19:43:59.550Z,6.00
2022-11-16T19:47:05.827Z,6.10
2022-11-16T19:50:11.753Z,6.00
2022-11-16T19:53:16.380Z,6.10
2022-11-16T19:56:22.547Z,6.10
2022-11-16T19:59:26.869Z,6.00
2022-11-16T20:02:31.235Z,6.00
2022-11-16T20:05:35.562Z,5.90
2022-11-16T20:08:41.849Z,6.00
2022-11-16T20:11:45.983Z,5.90
2022-11-16T20:14:50.611Z,6.00
2022-11-16T20:17:54.824Z,6.00
2022-11-16T20:21:05.187Z,6.10
2022-11-16T20:24:15.059Z,6.00
2022-11-16T20:27:19.365Z,5.90
2022-11-16T20:30:23.804Z,5.90
2022-11-16T20:33:28.018Z,5.90
2022-11-16T20:36:33.588Z,5.90
2022-11-16T20:39:37.899Z,5.90
2022-11-16T20:42:42.237Z,5.90
2022-11-16T20:45:52.365Z,6.00
2022-11-16T20:48:59.294Z,5.90
2022-11-16T20:52:03.665Z,5.90
2022-11-16T20:55:08.627Z,5.80
2022-11-16T20:58:13.220Z,5.80
2022-11-16T21:01:28.727Z,5.70
2022-11-16T21:04:33.097Z,5.60
2022-11-16T21:07:38.017Z,5.60
2022-11-16T21:10:42.588Z,5.60
2022-11-16T21:14:06.209Z,5.60
2022-11-16T21:17:10.550Z,5.50
2022-11-16T21:20:31.747Z,5.50
2022-11-16T21:23:37.223Z,5.50
2022-11-16T21:26:41.638Z,5.50
2022-11-16T21:29:46.056Z,5.50
2022-11-16T21:32:50.260Z,5.50
2022-11-16T21:35:54.998Z,5.50
2022-11-16T21:39:00.451Z,5.50
2022-11-16T21:42:04.884Z,5.40
2022-11-16T21:45:09.701Z,5.50
2022-11-16T21:48:14.736Z,5.50
2022-11-16T21:51:20.894Z,5.70
2022-11-16T21:54:45.429Z,5.60
2022-11-16T21:57:50.141Z,5.60
2022-11-16T22:00:59.663Z,5.70
2022-11-16T22:04:22.707Z,5.70
2022-11-16T22:07:32.818Z,5.70
2022-11-16T22:10:37.927Z,5.70
2022-11-16T22:13:43.348Z,5.70
2022-11-16T22:16:47.766Z,5.70
2022-11-16T22:19:52.192Z,5.90
2022-11-16T22:22:56.434Z,5.80
2022-11-16T22:26:18.993Z,5.80
2022-11-16T22:29:23.235Z,5.70
2022-11-16T22:32:27.629Z,5.70
2022-11-16T22:35:32.093Z,5.60
2022-11-16T22:38:36.931Z,5.60
2022-11-16T22:41:41.350Z,5.70
2022-11-16T22:44:45.512Z,5.70
2022-11-16T22:47:54.771Z,5.70
2022-11-16T22:51:04.350Z,5.70
2022-11-16T22:54:11.502Z,5.60
2022-11-16T22:57:15.978Z,5.60
2022-11-16T23:00:20.647Z,5.70
2022-11-16T23:03:24.700Z,5.70
2022-11-16T23:06:29.207Z,5.70
2022-11-16T23:09:34.398Z,5.60
2022-11-16T23:12:56.884Z,5.60
2022-11-16T23:16:04.484Z,5.50
2022-11-16T23:19:30.185Z,5.50
2022-11-16T23:22:53.185Z,5.50
2022-11-16T23:26:16.144Z,5.40
2022-11-16T23:29:20.393Z,5.50
2022-11-16T23:32:24.917Z,5.60
2022-11-16T23:35:29.058Z,5.50
2022-11-16T23:38:33.643Z,5.60
2022-11-16T23:41:56.305Z,5.60
2022-11-16T23:45:00.848Z,5.50
2022-11-16T23:48:07.154Z,5.50
2022-11-16T23:51:11.100Z,5.40
2022-11-16T23:54:15.309Z,5.30
2022-11-16T23:57:19.757Z,5.20
